KCMH/CMH METAR and TAF weather

Enter ICAO airport designator
Station Type Date Time Source
KCMH METAR 2020/05/30 03:51 UTC NOAA

KCMH 300351Z 00000KT 10SM CLR 15/14 A3003 RMK AO2 SLP164 T01500139


Station Type Date Time Source
KCMH Decoded METAR 2020/05/30 03:51 UTC NOAA

PORT COLUMBUS INTERNATIONAL AIRPORT, OH, United States (KCMH) 40-00N 82-53W 247M
May 29, 2020 - 11:51 PM EDT / 2020.05.30 0351 UTC
Wind: Calm:0
Visibility: 10 mile(s):0
Sky conditions: clear
Temperature: 59.0 F (15.0 C)
Dew Point: 57.0 F (13.9 C)
Relative Humidity: 93%
Pressure (altimeter): 30.03 in. Hg (1016 hPa)
ob: KCMH 300351Z 00000KT 10SM CLR 15/14 A3003 RMK AO2 SLP164 T01500139
cycle: 4

Station Type Date Time Source
KCMH TAF 2020/05/29 22:30 UTC NOAA

TAF
AMD KCMH 292228Z 2922/3018 31010KT P6SM SCT025 BKN035
TEMPO 2922/2924 BKN025
FM300000 33008KT P6SM BKN060
FM300300 33003KT P6SM FEW100
FM301200 33008KT P6SM FEW100

Example: see airport list